Time;durP1;ratioP1;P1;durP2;ratioP2;P2;SDS_P1;SDS_P2;PMS_P1;PMS_P2;Temp;Humidity;BMP_temperature;BMP_pressure;BME280_temperature;BME280_humidity;BME280_pressure;Samples;Min_cycle;Max_cycle;Signal;HPM_P1;HPM_P2
2023/05/28 00:01:18;;;;;;;11.73;5.13;;;11.30;99.90;;;;;;5036924;28;20242;-79
2023/05/28 00:03:45;;;;;;;10.80;4.87;;;11.30;99.90;;;;;;5035204;28;20262;-78
2023/05/28 00:06:12;;;;;;;16.77;5.57;;;11.30;99.90;;;;;;5037340;28;20298;-79
2023/05/28 00:08:39;;;;;;;13.07;6.27;;;11.30;99.90;;;;;;5037292;28;20230;-79
2023/05/28 00:11:06;;;;;;;10.77;5.03;;;11.20;99.90;;;;;;5034011;28;20736;-79
2023/05/28 00:13:32;;;;;;;11.70;5.03;;;11.20;99.90;;;;;;5039273;28;20231;-79
2023/05/28 00:15:59;;;;;;;15.33;5.70;;;11.20;99.90;;;;;;5037567;28;20242;-78
2023/05/28 00:18:28;;;;;;;10.33;5.00;;;11.10;99.90;;;;;;5041092;28;20225;-79
2023/05/28 00:20:54;;;;;;;11.23;5.60;;;11.10;99.90;;;;;;5040725;28;20256;-79
2023/05/28 00:23:21;;;;;;;12.17;4.83;;;11.10;99.90;;;;;;5037800;28;20225;-79
2023/05/28 00:25:48;;;;;;;10.53;5.13;;;11.10;99.90;;;;;;5034332;28;20223;-79
2023/05/28 00:28:15;;;;;;;14.77;5.13;;;11.00;99.90;;;;;;5040548;28;20775;-79
2023/05/28 00:30:42;;;;;;;11.33;5.03;;;11.00;99.90;;;;;;5038429;28;20229;-79
2023/05/28 00:33:09;;;;;;;10.43;4.70;;;11.00;99.90;;;;;;5033712;28;20320;-79
2023/05/28 00:35:37;;;;;;;10.70;5.23;;;11.00;99.90;;;;;;5036173;28;20709;-79
2023/05/28 00:38:04;;;;;;;12.40;5.37;;;10.90;99.90;;;;;;5035630;28;20862;-79
2023/05/28 00:40:32;;;;;;;13.50;5.80;;;10.90;99.90;;;;;;5031690;28;20243;-79
2023/05/28 00:42:59;;;;;;;12.03;5.63;;;10.80;99.90;;;;;;5038540;28;20297;-79
2023/05/28 00:45:26;;;;;;;12.37;6.30;;;10.80;99.90;;;;;;5035256;28;20308;-79
2023/05/28 00:47:53;;;;;;;14.40;6.50;;;10.70;99.90;;;;;;5038858;28;20271;-79
2023/05/28 00:50:20;;;;;;;11.67;6.10;;;10.70;99.90;;;;;;5039969;28;20224;-79
2023/05/28 00:52:51;;;;;;;11.90;6.07;;;10.60;99.90;;;;;;5035626;28;20318;-78
2023/05/28 00:55:18;;;;;;;11.50;6.10;;;10.60;99.90;;;;;;5038499;28;21016;-78
2023/05/28 00:57:47;;;;;;;11.80;6.33;;;10.60;99.90;;;;;;5034758;28;20236;-78
2023/05/28 01:00:14;;;;;;;12.87;6.60;;;10.50;99.90;;;;;;5033062;28;20235;-78
2023/05/28 01:02:41;;;;;;;16.83;6.00;;;10.50;99.90;;;;;;5036458;28;20222;-79
2023/05/28 01:05:09;;;;;;;10.60;5.27;;;10.40;99.90;;;;;;5039653;28;20216;-78
2023/05/28 01:07:35;;;;;;;13.67;6.43;;;10.40;99.90;;;;;;5035620;28;20236;-78
2023/05/28 01:10:06;;;;;;;13.80;6.30;;;10.30;99.90;;;;;;5033538;28;20493;-78
2023/05/28 01:12:35;;;;;;;12.07;5.37;;;10.30;99.90;;;;;;5031836;28;20300;-78
2023/05/28 01:15:01;;;;;;;12.43;6.50;;;10.30;99.90;;;;;;5037204;28;20299;-78
2023/05/28 01:17:28;;;;;;;9.83;5.47;;;10.20;99.90;;;;;;5037615;28;20250;-78
2023/05/28 01:20:05;;;;;;;11.20;5.83;;;10.20;99.90;;;;;;5033026;28;20228;-79
2023/05/28 01:22:38;;;;;;;13.70;6.17;;;10.20;99.90;;;;;;5035756;28;20282;-78
2023/05/28 01:25:09;;;;;;;12.13;5.80;;;10.10;99.90;;;;;;5036381;28;20223;-79
2023/05/28 01:27:39;;;;;;;14.60;6.67;;;10.10;99.90;;;;;;5035504;28;20309;-78
2023/05/28 01:30:09;;;;;;;12.93;6.37;;;10.00;99.90;;;;;;5036684;28;21993;-78
2023/05/28 01:32:37;;;;;;;15.07;7.77;;;10.00;99.90;;;;;;5039593;28;20225;-78
2023/05/28 01:35:04;;;;;;;13.33;6.97;;;9.90;99.90;;;;;;5033190;28;20299;-78
2023/05/28 01:37:33;;;;;;;14.83;7.37;;;9.90;99.90;;;;;;5052299;28;20228;-79
2023/05/28 01:40:02;;;;;;;12.83;7.73;;;9.80;99.90;;;;;;5034671;28;20627;-78
2023/05/28 01:42:32;;;;;;;14.47;7.53;;;9.80;99.90;;;;;;5051821;28;20294;-78
2023/05/28 01:45:00;;;;;;;14.97;7.57;;;9.80;99.90;;;;;;5029688;28;20217;-79
2023/05/28 01:47:34;;;;;;;15.67;6.97;;;9.70;99.90;;;;;;5052828;28;20238;-79
2023/05/28 01:50:01;;;;;;;12.57;6.47;;;9.70;99.90;;;;;;5036626;28;20226;-77
2023/05/28 01:52:29;;;;;;;13.80;6.07;;;9.60;99.90;;;;;;5032646;28;20398;-78
2023/05/28 01:54:56;;;;;;;11.20;5.83;;;9.60;99.90;;;;;;5033888;28;20317;-78
2023/05/28 01:57:23;;;;;;;10.20;5.93;;;9.60;99.90;;;;;;5036079;28;20224;-78
2023/05/28 01:59:51;;;;;;;9.70;6.43;;;9.50;99.90;;;;;;5038828;28;20232;-77
2023/05/28 02:02:19;;;;;;;14.57;7.60;;;9.50;99.90;;;;;;5031868;28;20227;-78
2023/05/28 02:04:46;;;;;;;12.47;6.67;;;9.50;99.90;;;;;;5032416;28;20647;-78
2023/05/28 02:07:13;;;;;;;10.63;6.33;;;9.40;99.90;;;;;;5035276;28;20315;-78
2023/05/28 02:09:40;;;;;;;12.17;6.33;;;9.40;99.90;;;;;;5037195;28;21004;-78
2023/05/28 02:12:09;;;;;;;10.43;5.70;;;9.40;99.90;;;;;;5035755;28;20220;-78
2023/05/28 02:14:36;;;;;;;13.00;6.80;;;9.30;99.90;;;;;;5031208;28;20733;-78
2023/05/28 02:17:04;;;;;;;12.87;6.27;;;9.30;99.90;;;;;;5038393;28;20224;-78
2023/05/28 02:19:32;;;;;;;10.30;6.10;;;9.30;99.90;;;;;;5037642;28;20359;-78
2023/05/28 02:21:59;;;;;;;9.83;5.30;;;9.20;99.90;;;;;;5035828;28;20252;-78
2023/05/28 02:24:26;;;;;;;10.43;6.60;;;9.20;99.90;;;;;;5041240;28;20216;-78
2023/05/28 02:26:55;;;;;;;9.37;4.90;;;9.20;99.90;;;;;;5040356;28;20239;-77
2023/05/28 02:29:22;;;;;;;8.23;4.73;;;9.10;99.90;;;;;;5034704;28;20283;-78
2023/05/28 02:31:50;;;;;;;10.70;4.93;;;9.10;99.90;;;;;;5032826;28;20650;-77
2023/05/28 02:34:18;;;;;;;9.70;4.77;;;9.10;99.90;;;;;;5035603;28;20335;-77
2023/05/28 02:36:45;;;;;;;9.13;4.73;;;9.10;99.90;;;;;;5034955;28;20231;-77
2023/05/28 02:39:13;;;;;;;9.60;4.90;;;9.00;99.90;;;;;;5034889;28;20255;-78
2023/05/28 02:41:40;;;;;;;7.90;3.73;;;9.00;99.90;;;;;;5035580;28;21358;-78
2023/05/28 02:44:07;;;;;;;7.90;4.60;;;8.90;99.90;;;;;;5036007;28;20303;-78
2023/05/28 02:46:34;;;;;;;12.77;5.17;;;8.90;99.90;;;;;;5040066;28;20221;-78
2023/05/28 02:49:00;;;;;;;14.13;5.03;;;8.90;99.90;;;;;;5040156;28;20594;-78
2023/05/28 02:51:30;;;;;;;10.10;4.50;;;8.90;99.90;;;;;;5037217;28;20222;-78
2023/05/28 02:54:12;;;;;;;10.17;4.43;;;8.80;99.90;;;;;;5038230;28;20412;-78
2023/05/28 02:56:39;;;;;;;9.37;4.30;;;8.80;99.90;;;;;;5039358;28;20252;-78
2023/05/28 02:59:06;;;;;;;10.37;4.43;;;8.80;99.90;;;;;;5039219;28;20228;-78
2023/05/28 03:01:32;;;;;;;9.07;5.20;;;8.80;99.90;;;;;;5038345;28;20321;-78
2023/05/28 03:03:59;;;;;;;11.13;5.33;;;8.70;99.90;;;;;;5053993;28;20382;-78
2023/05/28 03:06:26;;;;;;;12.33;5.87;;;8.70;99.90;;;;;;5033876;28;20216;-78
2023/05/28 03:08:56;;;;;;;8.60;4.63;;;8.70;99.90;;;;;;5035735;28;20826;-78
2023/05/28 03:11:23;;;;;;;10.27;5.00;;;8.60;99.90;;;;;;5054233;28;20842;-78
2023/05/28 03:13:50;;;;;;;8.53;4.97;;;8.60;99.90;;;;;;5041846;28;20440;-78
2023/05/28 03:16:17;;;;;;;10.07;5.17;;;8.60;99.90;;;;;;5037500;28;20224;-78
2023/05/28 03:18:45;;;;;;;7.60;4.70;;;8.60;99.90;;;;;;5037336;28;20220;-78
2023/05/28 03:21:12;;;;;;;8.70;4.60;;;8.60;99.90;;;;;;5038381;28;20290;-78
2023/05/28 03:23:39;;;;;;;13.40;5.17;;;8.60;99.90;;;;;;5037927;28;20576;-79
2023/05/28 03:26:25;;;;;;;9.67;4.47;;;8.50;99.90;;;;;;5034670;28;20433;-79
2023/05/28 03:28:52;;;;;;;10.97;5.20;;;8.50;99.90;;;;;;5038233;28;20228;-76
2023/05/28 03:31:30;;;;;;;8.97;4.77;;;8.50;99.90;;;;;;5044605;28;20302;-76
2023/05/28 03:33:59;;;;;;;9.30;4.73;;;8.50;99.90;;;;;;5044639;28;20654;-76
2023/05/28 03:36:25;;;;;;;9.37;4.67;;;8.50;99.90;;;;;;5044261;28;20231;-76
2023/05/28 03:38:52;;;;;;;9.37;4.47;;;8.50;99.90;;;;;;5044473;28;20229;-76
2023/05/28 03:41:20;;;;;;;9.83;4.67;;;8.50;99.90;;;;;;5043949;28;20227;-75
2023/05/28 03:43:49;;;;;;;9.23;5.10;;;8.60;99.90;;;;;;5044084;28;20339;-76
2023/05/28 03:46:16;;;;;;;12.77;5.20;;;8.50;99.90;;;;;;5043609;28;20769;-76
2023/05/28 03:48:43;;;;;;;10.60;5.33;;;8.60;99.90;;;;;;5044403;28;20228;-76
2023/05/28 03:51:11;;;;;;;9.10;5.60;;;8.60;99.90;;;;;;5043691;28;20231;-76
2023/05/28 03:53:38;;;;;;;7.93;4.80;;;8.60;99.90;;;;;;5044333;28;20285;-76
2023/05/28 03:56:05;;;;;;;10.27;5.20;;;8.60;99.90;;;;;;5043730;28;20234;-76
2023/05/28 03:58:33;;;;;;;7.63;4.00;;;8.60;99.90;;;;;;5043958;28;20304;-75
2023/05/28 04:01:01;;;;;;;11.37;4.83;;;8.70;99.90;;;;;;5044175;28;20230;-76
2023/05/28 04:03:28;;;;;;;8.90;4.27;;;8.70;99.90;;;;;;5043457;28;20240;-75
2023/05/28 04:05:55;;;;;;;7.83;4.77;;;8.70;99.90;;;;;;5044048;28;20278;-75
2023/05/28 04:08:22;;;;;;;7.40;4.10;;;8.80;99.90;;;;;;5043870;28;20650;-75
2023/05/28 04:10:49;;;;;;;8.37;4.47;;;8.80;99.90;;;;;;5043454;28;20617;-76
2023/05/28 04:13:16;;;;;;;9.73;4.67;;;8.80;99.90;;;;;;5043373;28;20832;-76
2023/05/28 04:15:42;;;;;;;8.07;4.60;;;8.90;99.90;;;;;;5043620;28;20771;-76
2023/05/28 04:18:10;;;;;;;10.77;4.87;;;8.90;99.90;;;;;;5043476;28;20255;-76
2023/05/28 04:20:37;;;;;;;6.97;4.23;;;8.90;99.90;;;;;;5043374;28;20234;-76
2023/05/28 04:23:04;;;;;;;6.73;4.30;;;9.00;99.90;;;;;;5043307;28;20240;-77
2023/05/28 04:25:32;;;;;;;7.37;4.17;;;9.00;99.90;;;;;;5042905;28;20282;-77
2023/05/28 04:28:00;;;;;;;12.83;5.30;;;9.10;99.90;;;;;;5043558;28;20247;-76
2023/05/28 04:30:28;;;;;;;8.23;4.20;;;9.10;99.90;;;;;;5042940;28;20768;-76
2023/05/28 04:32:56;;;;;;;10.53;4.57;;;9.20;99.90;;;;;;5043176;28;20944;-76
2023/05/28 04:35:24;;;;;;;10.17;4.93;;;9.30;99.90;;;;;;5042828;28;20755;-76
2023/05/28 04:37:51;;;;;;;9.63;5.40;;;9.30;99.90;;;;;;5044168;28;20234;-76
2023/05/28 04:40:21;;;;;;;8.87;4.57;;;9.40;99.90;;;;;;5042158;28;20307;-77
2023/05/28 04:42:48;;;;;;;10.93;5.13;;;9.50;99.90;;;;;;5043084;28;20781;-76
2023/05/28 04:45:16;;;;;;;10.80;4.93;;;9.50;99.90;;;;;;5042887;28;20235;-76
2023/05/28 04:47:45;;;;;;;11.20;4.60;;;9.60;99.90;;;;;;5029533;28;20228;-76
2023/05/28 04:50:12;;;;;;;13.43;5.43;;;9.70;99.90;;;;;;5022753;28;20925;-76
2023/05/28 04:52:40;;;;;;;10.90;4.80;;;9.70;99.90;;;;;;5023185;28;20927;-76
2023/05/28 04:55:07;;;;;;;11.50;4.77;;;9.80;99.90;;;;;;5024174;28;20221;-76
2023/05/28 04:57:34;;;;;;;10.13;4.47;;;9.90;99.90;;;;;;5022779;28;20701;-76
2023/05/28 05:00:03;;;;;;;9.93;4.70;;;10.00;99.90;;;;;;5024368;28;20310;-76
2023/05/28 05:02:31;;;;;;;9.83;5.00;;;10.10;99.90;;;;;;5038307;28;20222;-76
2023/05/28 05:04:58;;;;;;;11.60;4.97;;;10.20;99.90;;;;;;5022921;28;20232;-77
2023/05/28 05:07:25;;;;;;;9.93;4.53;;;10.20;99.90;;;;;;5022303;28;20227;-76
2023/05/28 05:09:53;;;;;;;10.57;4.57;;;10.30;99.90;;;;;;5036926;28;20317;-76
2023/05/28 05:12:20;;;;;;;9.80;5.00;;;10.40;99.90;;;;;;5041585;28;20314;-76
2023/05/28 05:14:49;;;;;;;19.00;5.57;;;10.50;99.90;;;;;;5028966;28;20633;-75
2023/05/28 05:17:15;;;;;;;10.53;5.23;;;10.60;99.90;;;;;;5033098;28;20292;-76
2023/05/28 05:19:42;;;;;;;10.97;5.20;;;10.70;99.90;;;;;;5041052;28;20224;-77
2023/05/28 05:22:09;;;;;;;8.10;5.30;;;10.80;99.90;;;;;;5036646;28;20231;-76
2023/05/28 05:24:36;;;;;;;12.20;5.40;;;10.90;99.90;;;;;;5035591;28;20247;-77
2023/05/28 05:27:04;;;;;;;14.73;4.83;;;11.00;99.90;;;;;;5026140;28;20335;-76
2023/05/28 05:29:34;;;;;;;11.53;4.87;;;11.00;99.90;;;;;;5031961;28;20220;-77
2023/05/28 05:32:00;;;;;;;11.13;5.03;;;11.10;99.90;;;;;;5031323;28;20829;-76
2023/05/28 05:34:27;;;;;;;11.97;5.60;;;11.20;99.90;;;;;;5032597;28;20333;-79
2023/05/28 05:37:14;;;;;;;12.97;5.70;;;11.30;99.90;;;;;;5009009;28;20232;-77
2023/05/28 05:39:41;;;;;;;11.03;4.87;;;11.50;99.90;;;;;;5026728;28;20304;-77
2023/05/28 05:42:21;;;;;;;11.93;5.40;;;11.70;99.90;;;;;;5032638;28;20223;-77
2023/05/28 05:44:51;;;;;;;14.10;5.93;;;11.90;99.90;;;;;;5027851;28;20306;-77
2023/05/28 05:47:18;;;;;;;13.77;5.40;;;12.10;99.90;;;;;;5031138;28;20214;-77
2023/05/28 05:49:44;;;;;;;11.37;5.40;;;12.30;99.90;;;;;;5031328;28;20316;-77
2023/05/28 05:52:11;;;;;;;13.07;5.20;;;12.50;99.90;;;;;;5029919;28;20946;-77
2023/05/28 05:54:39;;;;;;;10.43;5.47;;;12.60;99.90;;;;;;5034150;28;20306;-77
2023/05/28 05:57:07;;;;;;;10.73;4.63;;;12.80;99.90;;;;;;5026324;28;20237;-77
2023/05/28 05:59:35;;;;;;;10.47;5.17;;;13.00;99.90;;;;;;5038685;28;20239;-77
2023/05/28 06:02:02;;;;;;;11.07;5.10;;;13.20;99.90;;;;;;5029477;28;20309;-77
2023/05/28 06:04:31;;;;;;;9.83;4.93;;;13.30;99.90;;;;;;5033058;28;20230;-77
2023/05/28 06:07:21;;;;;;;10.77;4.50;;;13.50;99.90;;;;;;5031294;28;20230;-77
2023/05/28 06:09:49;;;;;;;8.80;4.30;;;13.60;99.90;;;;;;5042804;28;20231;-77
2023/05/28 06:12:21;;;;;;;9.50;4.67;;;13.70;99.90;;;;;;5040732;28;20234;-77
2023/05/28 06:14:49;;;;;;;12.20;4.80;;;13.80;99.90;;;;;;5028944;28;20817;-77
2023/05/28 06:17:17;;;;;;;10.87;4.67;;;13.90;99.90;;;;;;5032408;28;20622;-76
2023/05/28 06:19:44;;;;;;;11.40;5.03;;;14.10;99.90;;;;;;5041062;28;20346;-77
2023/05/28 06:22:11;;;;;;;9.83;4.90;;;14.10;99.90;;;;;;5040898;28;20223;-77
2023/05/28 06:24:38;;;;;;;13.37;4.50;;;14.30;99.90;;;;;;5024043;28;20744;-76
2023/05/28 06:27:05;;;;;;;11.87;4.53;;;14.40;99.90;;;;;;5028813;28;20216;-77
2023/05/28 06:29:32;;;;;;;12.50;5.63;;;14.60;99.90;;;;;;5032562;28;20239;-77
2023/05/28 06:32:00;;;;;;;11.63;5.20;;;14.60;99.90;;;;;;5024526;28;20224;-77
2023/05/28 06:34:27;;;;;;;12.47;5.00;;;14.70;99.90;;;;;;5040633;28;20619;-78
2023/05/28 06:36:54;;;;;;;8.53;4.53;;;14.70;99.90;;;;;;5024767;28;20314;-76
2023/05/28 06:39:21;;;;;;;10.30;4.70;;;14.70;99.90;;;;;;5034463;28;20234;-76
2023/05/28 06:41:51;;;;;;;8.50;4.90;;;14.80;99.90;;;;;;5043982;28;20244;-76
2023/05/28 06:44:31;;;;;;;13.37;4.93;;;14.90;99.90;;;;;;5044249;28;21176;-76
2023/05/28 06:47:05;;;;;;;12.37;5.03;;;15.00;99.90;;;;;;5045265;28;20318;-76
2023/05/28 06:49:32;;;;;;;11.67;4.80;;;15.00;99.90;;;;;;5033701;28;20288;-77
2023/05/28 06:51:59;;;;;;;13.93;5.40;;;15.10;99.90;;;;;;5024296;28;20307;-77
2023/05/28 06:54:25;;;;;;;11.37;4.57;;;15.20;99.90;;;;;;5032111;28;20216;-77
2023/05/28 06:56:52;;;;;;;10.10;5.10;;;15.20;99.90;;;;;;5023671;28;20235;-78
2023/05/28 06:59:34;;;;;;;10.60;4.80;;;15.30;99.90;;;;;;5040777;28;20270;-78
2023/05/28 07:02:10;;;;;;;10.37;4.80;;;15.40;99.90;;;;;;5038686;28;20266;-77
2023/05/28 07:04:50;;;;;;;9.80;5.07;;;15.50;99.90;;;;;;5057070;28;20217;-78
2023/05/28 07:07:21;;;;;;;10.10;4.53;;;15.70;99.90;;;;;;5041590;28;20721;-77
2023/05/28 07:09:48;;;;;;;12.15;5.03;;;16.00;99.90;;;;;;5035887;28;20223;-77
2023/05/28 07:12:15;;;;;;;11.68;4.75;;;16.30;99.90;;;;;;5034336;28;20228;-77
2023/05/28 07:14:47;;;;;;;10.95;4.50;;;16.70;99.90;;;;;;5034031;28;20247;-78
2023/05/28 07:17:15;;;;;;;10.88;4.25;;;17.10;99.90;;;;;;5037715;28;20220;-78
2023/05/28 07:19:44;;;;;;;11.25;5.15;;;17.50;99.90;;;;;;5038931;28;20232;-78
2023/05/28 07:22:11;;;;;;;9.00;4.30;;;17.90;99.90;;;;;;5030836;28;20225;-77
2023/05/28 07:24:40;;;;;;;12.10;5.03;;;18.10;99.90;;;;;;5038293;28;20274;-78
2023/05/28 07:27:07;;;;;;;9.57;4.65;;;18.40;99.90;;;;;;5027206;28;20220;-78
2023/05/28 07:29:34;;;;;;;8.63;4.72;;;18.60;99.90;;;;;;5030162;28;20244;-78
2023/05/28 07:32:01;;;;;;;11.15;4.97;;;18.70;99.60;;;;;;5045397;28;20716;-78
2023/05/28 07:34:32;;;;;;;9.82;4.65;;;18.70;99.40;;;;;;5028734;28;20237;-78
2023/05/28 07:36:59;;;;;;;8.50;3.83;;;18.70;99.20;;;;;;5035985;28;20219;-78
2023/05/28 07:39:25;;;;;;;9.73;4.75;;;18.70;99.30;;;;;;5039808;28;20220;-78
2023/05/28 07:41:52;;;;;;;10.50;5.05;;;18.70;99.10;;;;;;5032430;28;20225;-78
2023/05/28 07:44:23;;;;;;;9.88;4.70;;;18.60;99.10;;;;;;5031185;28;20220;-77
2023/05/28 07:46:50;;;;;;;11.88;4.80;;;18.60;99.10;;;;;;5043032;28;20212;-77
2023/05/28 07:49:25;;;;;;;9.50;5.10;;;18.50;99.10;;;;;;5037886;28;20219;-77
2023/05/28 07:51:54;;;;;;;11.07;5.05;;;18.50;99.30;;;;;;5037674;28;20228;-78
2023/05/28 07:54:23;;;;;;;14.77;5.03;;;18.50;99.30;;;;;;5034263;28;20289;-78
2023/05/28 07:56:50;;;;;;;11.75;4.60;;;18.60;99.30;;;;;;5042764;28;20216;-78
2023/05/28 07:59:24;;;;;;;9.75;4.15;;;18.70;99.10;;;;;;5042917;28;20982;-78
2023/05/28 08:01:51;;;;;;;6.55;3.95;;;19.00;99.10;;;;;;5040151;28;20230;-79
2023/05/28 08:04:18;;;;;;;9.70;3.70;;;19.40;99.20;;;;;;5041970;28;20220;-80
2023/05/28 08:06:45;;;;;;;7.82;3.63;;;19.90;98.90;;;;;;5035917;28;20224;-79
2023/05/28 08:09:17;;;;;;;7.72;3.90;;;20.50;98.00;;;;;;5038379;28;20944;-79
2023/05/28 08:11:45;;;;;;;8.18;3.55;;;21.10;96.40;;;;;;5043177;28;20243;-79
2023/05/28 08:14:11;;;;;;;7.75;3.70;;;21.70;96.30;;;;;;5038070;28;20268;-78
2023/05/28 08:16:41;;;;;;;9.55;4.20;;;22.20;95.70;;;;;;5036858;28;20220;-79
2023/05/28 08:19:22;;;;;;;7.80;4.13;;;22.70;94.30;;;;;;5043148;28;20659;-79
2023/05/28 08:21:52;;;;;;;10.00;4.78;;;23.20;93.40;;;;;;5031876;28;20953;-79
2023/05/28 08:24:21;;;;;;;8.52;3.90;;;23.60;92.50;;;;;;5045052;28;20285;-82
2023/05/28 08:26:50;;;;;;;10.00;4.55;;;23.90;91.40;;;;;;5043343;28;20805;-81
2023/05/28 08:29:17;;;;;;;9.30;3.72;;;24.00;90.50;;;;;;5039718;28;20216;-77
2023/05/28 08:31:51;;;;;;;7.90;3.85;;;24.20;90.10;;;;;;5040469;28;20220;-80
2023/05/28 08:34:24;;;;;;;6.55;3.47;;;24.40;90.40;;;;;;5041595;28;20236;-80
2023/05/28 08:36:52;;;;;;;9.07;4.13;;;24.60;90.10;;;;;;5043974;28;20331;-84
2023/05/28 08:39:27;;;;;;;8.25;4.10;;;24.90;89.20;;;;;;5043249;28;20230;-81
2023/05/28 08:41:54;;;;;;;10.50;3.95;;;25.30;88.60;;;;;;5040430;28;20266;-82
2023/05/28 08:44:22;;;;;;;8.13;3.80;;;25.70;88.20;;;;;;5043444;28;20707;-82
2023/05/28 08:46:50;;;;;;;8.15;3.88;;;26.20;87.40;;;;;;5042371;28;20691;-80
2023/05/28 08:49:32;;;;;;;8.38;3.83;;;26.50;82.10;;;;;;5042992;28;20311;-79
2023/05/28 08:52:01;;;;;;;6.47;3.30;;;26.80;80.80;;;;;;5040351;28;20216;-79
2023/05/28 08:54:30;;;;;;;7.22;3.50;;;27.00;79.10;;;;;;5039505;28;20228;-79
2023/05/28 08:56:57;;;;;;;8.10;3.63;;;27.10;77.70;;;;;;5041055;28;20223;-79
2023/05/28 08:59:27;;;;;;;8.10;3.30;;;27.20;77.30;;;;;;5035150;28;20220;-79
2023/05/28 09:01:55;;;;;;;8.35;3.38;;;27.30;76.90;;;;;;5041937;28;20227;-78
2023/05/28 09:04:23;;;;;;;7.65;3.53;;;27.50;75.10;;;;;;5040760;28;20220;-79
2023/05/28 09:06:51;;;;;;;7.35;3.50;;;27.80;74.70;;;;;;5056056;28;20284;-79
2023/05/28 09:09:27;;;;;;;7.70;2.97;;;28.00;72.10;;;;;;5039834;28;20482;-81
2023/05/28 09:12:05;;;;;;;5.10;3.30;;;28.10;72.10;;;;;;5058056;28;20224;-82
2023/05/28 09:14:39;;;;;;;7.05;3.05;;;28.40;70.40;;;;;;5039603;28;21003;-81
2023/05/28 09:17:05;;;;;;;7.68;3.38;;;28.60;71.00;;;;;;5040409;28;20223;-81
2023/05/28 09:19:32;;;;;;;5.68;3.10;;;28.90;71.00;;;;;;5042248;28;20262;-80
2023/05/28 09:22:01;;;;;;;5.97;2.85;;;29.20;70.10;;;;;;5033376;28;20220;-80
2023/05/28 09:25:04;;;;;;;7.40;3.28;;;29.50;67.80;;;;;;5021260;28;20220;-80
2023/05/28 09:27:52;;;;;;;7.30;3.47;;;29.70;67.20;;;;;;5045597;28;20220;-80
2023/05/28 09:30:19;;;;;;;10.07;3.70;;;30.00;67.10;;;;;;5041848;28;20228;-80
2023/05/28 09:32:46;;;;;;;8.13;3.03;;;30.10;66.10;;;;;;5037986;28;20227;-80
2023/05/28 09:35:13;;;;;;;6.32;2.97;;;30.40;64.70;;;;;;5036193;28;20212;-80
2023/05/28 09:37:40;;;;;;;8.02;2.90;;;30.70;63.50;;;;;;5037706;28;20714;-80
2023/05/28 09:40:09;;;;;;;7.35;3.05;;;30.80;62.10;;;;;;5035640;28;20903;-80
2023/05/28 09:42:41;;;;;;;5.90;2.75;;;31.00;61.00;;;;;;5036584;28;20256;-80
2023/05/28 09:45:10;;;;;;;4.80;2.67;;;31.10;60.90;;;;;;5035036;28;20220;-80
2023/05/28 09:47:43;;;;;;;5.60;2.78;;;31.30;60.40;;;;;;5035902;28;20251;-80
2023/05/28 09:50:11;;;;;;;6.60;2.90;;;31.60;59.30;;;;;;5037113;28;20213;-80
2023/05/28 09:52:39;;;;;;;5.63;2.85;;;31.70;58.60;;;;;;5034811;28;20813;-80
2023/05/28 09:55:08;;;;;;;7.90;2.92;;;31.80;56.80;;;;;;5036639;28;20221;-79
2023/05/28 09:57:40;;;;;;;7.57;3.15;;;32.00;56.50;;;;;;5036641;28;20220;-80
2023/05/28 10:00:19;;;;;;;7.88;3.30;;;32.00;55.70;;;;;;5034981;28;20233;-80
2023/05/28 10:02:56;;;;;;;7.43;3.53;;;32.10;55.10;;;;;;5033546;28;20234;-79
2023/05/28 10:05:26;;;;;;;7.40;3.30;;;32.20;54.20;;;;;;5036271;28;20212;-79
2023/05/28 10:07:56;;;;;;;6.38;2.95;;;32.10;52.60;;;;;;5038974;28;20223;-79
2023/05/28 10:10:24;;;;;;;6.93;3.05;;;32.00;53.50;;;;;;5036056;28;20227;-78
2023/05/28 10:12:53;;;;;;;5.18;2.65;;;31.90;53.60;;;;;;5030400;28;20721;-80
2023/05/28 10:15:21;;;;;;;5.63;3.38;;;31.80;53.40;;;;;;5036602;28;20216;-80
2023/05/28 10:17:50;;;;;;;7.18;3.00;;;31.80;52.60;;;;;;5035892;28;20232;-80
2023/05/28 10:20:18;;;;;;;5.78;3.08;;;31.70;51.80;;;;;;5038733;28;20665;-79
2023/05/28 10:22:45;;;;;;;6.75;3.25;;;31.60;51.90;;;;;;5035914;28;20787;-79
2023/05/28 10:25:12;;;;;;;6.95;3.03;;;31.50;52.30;;;;;;5039426;28;20223;-79
2023/05/28 10:27:45;;;;;;;5.43;3.30;;;31.50;52.40;;;;;;5033459;28;20227;-79
2023/05/28 10:30:13;;;;;;;7.57;3.50;;;31.50;51.70;;;;;;5034503;28;20263;-79
2023/05/28 10:32:41;;;;;;;9.18;3.63;;;31.60;52.10;;;;;;5036554;28;20742;-80
2023/05/28 10:35:10;;;;;;;7.15;3.70;;;31.60;50.60;;;;;;5036450;28;20226;-80
2023/05/28 10:37:37;;;;;;;6.18;3.22;;;31.30;49.70;;;;;;5038367;28;20650;-79
2023/05/28 10:40:08;;;;;;;6.00;3.10;;;30.90;49.70;;;;;;5037325;28;20227;-79
2023/05/28 10:42:40;;;;;;;7.43;3.35;;;30.50;50.00;;;;;;5036279;28;20613;-79
2023/05/28 10:45:09;;;;;;;4.65;2.88;;;30.10;50.10;;;;;;5041434;28;20777;-79
2023/05/28 10:47:38;;;;;;;7.80;3.60;;;30.00;51.00;;;;;;5042843;28;20269;-80
2023/05/28 10:50:14;;;;;;;8.25;3.40;;;29.90;50.40;;;;;;5045969;28;20219;-79
2023/05/28 10:52:41;;;;;;;9.57;3.67;;;30.00;50.80;;;;;;5033903;28;20232;-78
2023/05/28 10:55:09;;;;;;;6.57;3.60;;;30.10;51.50;;;;;;5039642;28;20309;-79
2023/05/28 10:57:41;;;;;;;5.57;3.40;;;30.20;50.50;;;;;;5042465;28;20224;-79
2023/05/28 11:00:13;;;;;;;6.72;3.30;;;30.20;49.80;;;;;;5043766;28;20274;-79
2023/05/28 11:02:41;;;;;;;6.35;3.42;;;30.20;49.40;;;;;;5036389;28;20315;-79
2023/05/28 11:05:09;;;;;;;5.88;3.22;;;30.20;49.40;;;;;;5047355;28;20223;-79
2023/05/28 11:07:38;;;;;;;7.10;3.45;;;30.10;49.60;;;;;;5042452;28;20250;-79
2023/05/28 11:10:07;;;;;;;7.20;3.47;;;29.90;49.20;;;;;;5038996;28;20224;-79
2023/05/28 11:12:36;;;;;;;8.32;3.58;;;29.70;49.20;;;;;;5042276;28;20227;-79
2023/05/28 11:15:04;;;;;;;6.82;3.67;;;29.50;49.50;;;;;;5042598;28;20226;-79
2023/05/28 11:17:36;;;;;;;5.90;3.10;;;29.30;49.50;;;;;;5036575;28;20712;-79
2023/05/28 11:20:03;;;;;;;8.35;2.92;;;29.10;50.10;;;;;;5034720;28;20221;-80
2023/05/28 11:22:34;;;;;;;6.45;3.42;;;28.90;50.30;;;;;;5041993;28;20339;-79
2023/05/28 11:25:06;;;;;;;9.27;3.28;;;28.80;51.20;;;;;;5055567;28;20690;-80
2023/05/28 11:27:35;;;;;;;4.53;3.00;;;28.90;51.90;;;;;;5037418;28;20236;-80
2023/05/28 11:30:03;;;;;;;5.40;3.40;;;29.10;51.20;;;;;;5040077;28;20913;-80
2023/05/28 11:32:33;;;;;;;7.82;3.17;;;29.20;51.00;;;;;;5055322;28;20224;-80
2023/05/28 11:35:00;;;;;;;8.60;3.53;;;29.40;51.70;;;;;;5041512;28;20716;-80
2023/05/28 11:37:28;;;;;;;6.75;3.67;;;29.60;51.00;;;;;;5037757;28;20306;-80
2023/05/28 11:39:57;;;;;;;7.32;3.83;;;29.70;51.40;;;;;;5054890;28;20229;-80
2023/05/28 11:42:27;;;;;;;5.78;3.05;;;29.80;50.90;;;;;;5038918;28;20240;-81
2023/05/28 11:44:54;;;;;;;6.10;3.10;;;29.80;50.60;;;;;;5041522;28;20224;-79
2023/05/28 11:47:22;;;;;;;6.80;3.10;;;29.70;50.20;;;;;;5039859;28;20289;-80
2023/05/28 11:49:49;;;;;;;6.95;3.42;;;29.60;50.00;;;;;;5035536;28;20213;-80
2023/05/28 11:52:17;;;;;;;7.68;3.50;;;29.30;49.40;;;;;;5034790;28;20303;-80
2023/05/28 11:54:46;;;;;;;7.03;3.88;;;29.00;49.60;;;;;;5042541;28;20216;-80
2023/05/28 11:57:21;;;;;;;9.18;3.67;;;28.70;49.70;;;;;;5057723;28;20262;-79
2023/05/28 12:00:00;;;;;;;8.05;3.83;;;28.40;49.80;;;;;;5040011;28;20231;-80
2023/05/28 12:02:27;;;;;;;7.05;3.47;;;28.20;50.50;;;;;;5033943;28;20282;-80
2023/05/28 12:04:56;;;;;;;8.05;3.75;;;28.00;50.50;;;;;;5045509;28;20231;-80
2023/05/28 12:07:23;;;;;;;7.63;3.40;;;27.90;50.70;;;;;;5037057;28;20221;-80
2023/05/28 12:09:49;;;;;;;5.85;3.35;;;27.80;50.90;;;;;;5035020;28;20229;-80
2023/05/28 12:12:16;;;;;;;7.57;3.70;;;27.70;51.00;;;;;;5027148;28;20220;-80
2023/05/28 12:14:47;;;;;;;6.43;3.03;;;27.70;51.30;;;;;;5037160;28;20235;-80
2023/05/28 12:17:17;;;;;;;5.88;3.50;;;27.60;51.70;;;;;;5036852;28;20225;-80
2023/05/28 12:19:44;;;;;;;7.53;3.88;;;27.70;51.70;;;;;;5040290;28;20313;-80
2023/05/28 12:22:15;;;;;;;6.93;3.47;;;27.70;51.30;;;;;;5039717;28;20302;-79
2023/05/28 12:24:49;;;;;;;6.43;3.45;;;27.80;51.40;;;;;;5036908;28;20248;-79
2023/05/28 12:27:16;;;;;;;6.50;3.05;;;27.90;50.60;;;;;;5034267;28;20212;-79
2023/05/28 12:29:43;;;;;;;6.78;3.90;;;28.00;50.90;;;;;;5033385;28;20228;-79
2023/05/28 12:32:10;;;;;;;8.13;3.45;;;28.10;51.20;;;;;;5033493;28;20216;-79
2023/05/28 12:34:40;;;;;;;7.68;4.43;;;28.20;50.60;;;;;;5036571;28;20637;-78
2023/05/28 12:37:07;;;;;;;6.60;3.35;;;28.10;50.50;;;;;;5040052;28;20230;-79
2023/05/28 12:39:35;;;;;;;5.63;3.28;;;28.00;50.70;;;;;;5036692;28;20220;-79
2023/05/28 12:42:02;;;;;;;7.07;3.58;;;27.90;51.10;;;;;;5038156;28;20247;-80
2023/05/28 12:44:29;;;;;;;6.20;3.60;;;27.80;50.70;;;;;;5035959;28;20228;-80
2023/05/28 12:46:56;;;;;;;7.72;3.78;;;27.70;50.70;;;;;;5033072;28;20315;-81
2023/05/28 12:49:22;;;;;;;5.88;3.13;;;27.60;49.90;;;;;;5051879;28;20736;-78
2023/05/28 12:51:51;;;;;;;5.90;3.20;;;27.40;50.20;;;;;;5036755;28;20220;-79
2023/05/28 12:54:17;;;;;;;12.93;3.53;;;27.20;50.30;;;;;;5038214;28;20224;-80